sensor_id;sensor_type;location;lat;lon;timestamp;pressure;altitude;pressure_sealevel;temperature;humidity
46782;BME280;32541;46.298;11.506;2023-02-03T00:01:00;90132.47;;;2.51;53.50
46782;BME280;32541;46.298;11.506;2023-02-03T00:03:26;90119.28;;;2.42;53.63
46782;BME280;32541;46.298;11.506;2023-02-03T00:05:52;90124.78;;;2.36;53.44
46782;BME280;32541;46.298;11.506;2023-02-03T00:08:19;90112.59;;;2.43;52.88
46782;BME280;32541;46.298;11.506;2023-02-03T00:10:45;90116.13;;;2.38;53.78
46782;BME280;32541;46.298;11.506;2023-02-03T00:13:11;90119.56;;;2.38;53.41
46782;BME280;32541;46.298;11.506;2023-02-03T00:15:36;90108.28;;;2.15;55.16
46782;BME280;32541;46.298;11.506;2023-02-03T00:18:02;90116.13;;;2.00;55.08
46782;BME280;32541;46.298;11.506;2023-02-03T00:20:27;90109.03;;;1.97;54.68
46782;BME280;32541;46.298;11.506;2023-02-03T00:22:53;90094.72;;;2.34;53.08
46782;BME280;32541;46.298;11.506;2023-02-03T00:25:18;90122.13;;;2.12;56.23
46782;BME280;32541;46.298;11.506;2023-02-03T00:27:45;90109.09;;;1.92;56.08
46782;BME280;32541;46.298;11.506;2023-02-03T00:30:11;90104.53;;;2.00;55.10
46782;BME280;32541;46.298;11.506;2023-02-03T00:32:37;90111.22;;;2.17;53.96
46782;BME280;32541;46.298;11.506;2023-02-03T00:35:03;90100.53;;;2.06;54.89
46782;BME280;32541;46.298;11.506;2023-02-03T00:37:29;90096.41;;;2.00;55.93
46782;BME280;32541;46.298;11.506;2023-02-03T00:39:54;90120.06;;;1.81;56.39
46782;BME280;32541;46.298;11.506;2023-02-03T00:42:19;90106.81;;;1.77;55.31
46782;BME280;32541;46.298;11.506;2023-02-03T00:44:45;90086.66;;;2.29;53.00
46782;BME280;32541;46.298;11.506;2023-02-03T00:47:10;90094.34;;;2.24;53.67
46782;BME280;32541;46.298;11.506;2023-02-03T00:49:35;90096.84;;;2.04;55.41
46782;BME280;32541;46.298;11.506;2023-02-03T00:52:01;90097.22;;;1.95;54.38
46782;BME280;32541;46.298;11.506;2023-02-03T00:54:26;90085.25;;;1.85;55.74
46782;BME280;32541;46.298;11.506;2023-02-03T00:56:52;90095.38;;;1.84;54.94
46782;BME280;32541;46.298;11.506;2023-02-03T00:59:17;90084.38;;;1.77;55.04
46782;BME280;32541;46.298;11.506;2023-02-03T01:01:42;90094.50;;;1.95;54.61
46782;BME280;32541;46.298;11.506;2023-02-03T01:04:08;90083.50;;;1.87;54.67
46782;BME280;32541;46.298;11.506;2023-02-03T01:06:33;90086.59;;;1.78;56.12
46782;BME280;32541;46.298;11.506;2023-02-03T01:09:02;90089.41;;;1.67;56.63
46782;BME280;32541;46.298;11.506;2023-02-03T01:11:28;90105.56;;;1.78;55.21
46782;BME280;32541;46.298;11.506;2023-02-03T01:13:54;90088.63;;;1.72;55.19
46782;BME280;32541;46.298;11.506;2023-02-03T01:16:22;90105.25;;;1.63;56.50
46782;BME280;32541;46.298;11.506;2023-02-03T01:18:48;90105.53;;;1.59;56.76
46782;BME280;32541;46.298;11.506;2023-02-03T01:21:16;90102.44;;;1.50;56.03
46782;BME280;32541;46.298;11.506;2023-02-03T01:23:43;90098.56;;;1.45;55.49
46782;BME280;32541;46.298;11.506;2023-02-03T01:26:11;90088.47;;;1.22;57.02
46782;BME280;32541;46.298;11.506;2023-02-03T01:28:36;90087.47;;;1.19;57.57
46782;BME280;32541;46.298;11.506;2023-02-03T01:31:13;90078.41;;;1.17;57.53
46782;BME280;32541;46.298;11.506;2023-02-03T01:33:39;90078.69;;;1.13;58.25
46782;BME280;32541;46.298;11.506;2023-02-03T01:36:08;90083.47;;;1.01;58.65
46782;BME280;32541;46.298;11.506;2023-02-03T01:38:35;90099.34;;;0.92;58.90
46782;BME280;32541;46.298;11.506;2023-02-03T01:41:01;90100.38;;;0.83;59.12
46782;BME280;32541;46.298;11.506;2023-02-03T01:43:28;90107.41;;;0.97;58.20
46782;BME280;32541;46.298;11.506;2023-02-03T01:45:54;90111.56;;;0.98;58.45
46782;BME280;32541;46.298;11.506;2023-02-03T01:48:19;90104.34;;;0.82;59.36
46782;BME280;32541;46.298;11.506;2023-02-03T01:50:45;90103.91;;;0.73;59.11
46782;BME280;32541;46.298;11.506;2023-02-03T01:53:11;90102.41;;;0.77;59.17
46782;BME280;32541;46.298;11.506;2023-02-03T01:55:40;90090.56;;;0.80;58.91
46782;BME280;32541;46.298;11.506;2023-02-03T01:58:14;90097.44;;;0.81;59.22
46782;BME280;32541;46.298;11.506;2023-02-03T02:00:44;90096.16;;;0.88;58.68
46782;BME280;32541;46.298;11.506;2023-02-03T02:03:10;90097.63;;;0.89;58.28
46782;BME280;32541;46.298;11.506;2023-02-03T02:05:59;90096.72;;;0.81;57.90
46782;BME280;32541;46.298;11.506;2023-02-03T02:08:27;90088.03;;;0.88;57.84
46782;BME280;32541;46.298;11.506;2023-02-03T02:10:53;90092.31;;;0.78;58.22
46782;BME280;32541;46.298;11.506;2023-02-03T02:13:20;90092.13;;;0.70;58.10
46782;BME280;32541;46.298;11.506;2023-02-03T02:27:05;90107.47;;;0.62;58.66
46782;BME280;32541;46.298;11.506;2023-02-03T02:40:18;90092.22;;;0.59;57.80
46782;BME280;32541;46.298;11.506;2023-02-03T02:43:08;90098.81;;;0.64;57.82
46782;BME280;32541;46.298;11.506;2023-02-03T02:45:53;90099.28;;;0.68;58.53
46782;BME280;32541;46.298;11.506;2023-02-03T02:50:54;90101.69;;;0.77;56.96
46782;BME280;32541;46.298;11.506;2023-02-03T02:53:24;90098.59;;;0.62;58.56
46782;BME280;32541;46.298;11.506;2023-02-03T02:55:51;90111.38;;;0.61;58.51
46782;BME280;32541;46.298;11.506;2023-02-03T02:58:19;90106.94;;;0.64;57.68
46782;BME280;32541;46.298;11.506;2023-02-03T03:00:45;90113.03;;;0.70;58.04
46782;BME280;32541;46.298;11.506;2023-02-03T03:03:21;90117.81;;;0.58;58.25
46782;BME280;32541;46.298;11.506;2023-02-03T03:06:01;90124.69;;;0.59;57.81
46782;BME280;32541;46.298;11.506;2023-02-03T03:08:37;90137.78;;;0.49;58.74
46782;BME280;32541;46.298;11.506;2023-02-03T03:11:05;90137.59;;;0.42;58.40
46782;BME280;32541;46.298;11.506;2023-02-03T03:13:35;90130.16;;;0.48;58.82
46782;BME280;32541;46.298;11.506;2023-02-03T03:16:04;90124.03;;;0.47;57.90
46782;BME280;32541;46.298;11.506;2023-02-03T03:18:45;90145.47;;;0.40;59.48
46782;BME280;32541;46.298;11.506;2023-02-03T03:21:16;90149.97;;;0.32;58.95
46782;BME280;32541;46.298;11.506;2023-02-03T03:23:46;90150.41;;;0.36;59.20
46782;BME280;32541;46.298;11.506;2023-02-03T03:26:17;90154.81;;;0.39;59.30
46782;BME280;32541;46.298;11.506;2023-02-03T03:28:48;90146.78;;;0.28;59.69
46782;BME280;32541;46.298;11.506;2023-02-03T03:31:16;90147.00;;;0.30;59.24
46782;BME280;32541;46.298;11.506;2023-02-03T03:33:43;90149.22;;;0.31;59.23
46782;BME280;32541;46.298;11.506;2023-02-03T03:36:28;90146.28;;;0.29;59.26
46782;BME280;32541;46.298;11.506;2023-02-03T03:41:58;90133.06;;;0.20;57.71
46782;BME280;32541;46.298;11.506;2023-02-03T03:44:29;90141.97;;;0.10;60.20
46782;BME280;32541;46.298;11.506;2023-02-03T03:47:10;90131.16;;;0.10;59.73
46782;BME280;32541;46.298;11.506;2023-02-03T03:49:39;90131.84;;;0.16;59.43
46782;BME280;32541;46.298;11.506;2023-02-03T03:52:07;90131.13;;;0.15;59.43
46782;BME280;32541;46.298;11.506;2023-02-03T03:54:36;90136.25;;;0.19;59.42
46782;BME280;32541;46.298;11.506;2023-02-03T03:57:12;90142.75;;;0.05;59.64
46782;BME280;32541;46.298;11.506;2023-02-03T03:59:40;90151.84;;;0.02;59.99
46782;BME280;32541;46.298;11.506;2023-02-03T04:02:09;90141.25;;;0.04;59.14
46782;BME280;32541;46.298;11.506;2023-02-03T04:04:38;90145.22;;;0.03;59.75
46782;BME280;32541;46.298;11.506;2023-02-03T04:07:04;90140.13;;;-0.12;60.62
46782;BME280;32541;46.298;11.506;2023-02-03T04:09:29;90148.16;;;0.05;59.50
46782;BME280;32541;46.298;11.506;2023-02-03T04:11:55;90148.69;;;-0.08;60.37
46782;BME280;32541;46.298;11.506;2023-02-03T04:14:28;90147.94;;;-0.03;59.46
46782;BME280;32541;46.298;11.506;2023-02-03T04:16:54;90145.00;;;-0.05;58.75
46782;BME280;32541;46.298;11.506;2023-02-03T04:19:20;90146.47;;;-0.04;59.63
46782;BME280;32541;46.298;11.506;2023-02-03T04:21:45;90149.22;;;-0.21;59.68
46782;BME280;32541;46.298;11.506;2023-02-03T04:24:10;90142.13;;;-0.18;59.94
46782;BME280;32541;46.298;11.506;2023-02-03T04:26:37;90130.09;;;-0.23;59.51
46782;BME280;32541;46.298;11.506;2023-02-03T04:29:02;90133.97;;;-0.13;60.13
46782;BME280;32541;46.298;11.506;2023-02-03T04:31:28;90124.91;;;-0.15;59.89
46782;BME280;32541;46.298;11.506;2023-02-03T04:33:53;90131.50;;;-0.11;59.68
46782;BME280;32541;46.298;11.506;2023-02-03T04:36:19;90125.63;;;-0.15;60.08
46782;BME280;32541;46.298;11.506;2023-02-03T04:38:44;90114.34;;;-0.19;59.65
46782;BME280;32541;46.298;11.506;2023-02-03T04:41:09;90127.13;;;-0.19;60.82
46782;BME280;32541;46.298;11.506;2023-02-03T04:43:35;90121.75;;;-0.25;60.70
46782;BME280;32541;46.298;11.506;2023-02-03T04:46:00;90120.56;;;-0.35;60.56
46782;BME280;32541;46.298;11.506;2023-02-03T04:48:27;90126.94;;;-0.27;60.57
46782;BME280;32541;46.298;11.506;2023-02-03T04:50:52;90133.06;;;-0.32;61.13
46782;BME280;32541;46.298;11.506;2023-02-03T04:53:18;90117.41;;;-0.50;60.77
46782;BME280;32541;46.298;11.506;2023-02-03T04:55:47;90115.19;;;-0.40;60.41
46782;BME280;32541;46.298;11.506;2023-02-03T04:58:12;90122.09;;;-0.45;60.29
46782;BME280;32541;46.298;11.506;2023-02-03T05:00:38;90111.50;;;-0.43;60.27
46782;BME280;32541;46.298;11.506;2023-02-03T05:03:03;90122.09;;;-0.45;61.06
46782;BME280;32541;46.298;11.506;2023-02-03T05:05:29;90119.88;;;-0.52;61.32
46782;BME280;32541;46.298;11.506;2023-02-03T05:07:54;90119.84;;;-0.41;60.91
46782;BME280;32541;46.298;11.506;2023-02-03T05:10:20;90121.09;;;-0.47;60.77
46782;BME280;32541;46.298;11.506;2023-02-03T05:12:45;90131.41;;;-0.46;61.33
46782;BME280;32541;46.298;11.506;2023-02-03T05:15:11;90137.81;;;-0.49;60.13
46782;BME280;32541;46.298;11.506;2023-02-03T05:17:36;90137.09;;;-0.55;60.71
46782;BME280;32541;46.298;11.506;2023-02-03T05:20:05;90136.38;;;-0.61;60.92
46782;BME280;32541;46.298;11.506;2023-02-03T05:22:30;90144.44;;;-0.50;60.11
46782;BME280;32541;46.298;11.506;2023-02-03T05:24:56;90136.13;;;-0.63;62.68
46782;BME280;32541;46.298;11.506;2023-02-03T05:27:21;90126.06;;;-0.68;62.75
46782;BME280;32541;46.298;11.506;2023-02-03T05:29:46;90129.06;;;-0.72;62.78
46782;BME280;32541;46.298;11.506;2023-02-03T05:32:12;90124.34;;;-0.60;61.47
46782;BME280;32541;46.298;11.506;2023-02-03T05:34:37;90120.16;;;-0.56;61.33
46782;BME280;32541;46.298;11.506;2023-02-03T05:37:02;90125.28;;;-0.52;60.72
46782;BME280;32541;46.298;11.506;2023-02-03T05:39:28;90126.78;;;-0.62;60.71
46782;BME280;32541;46.298;11.506;2023-02-03T05:41:53;90118.72;;;-0.73;62.70
46782;BME280;32541;46.298;11.506;2023-02-03T05:44:26;90119.50;;;-0.78;62.57
46782;BME280;32541;46.298;11.506;2023-02-03T05:46:53;90114.81;;;-0.78;61.88
46782;BME280;32541;46.298;11.506;2023-02-03T05:49:20;90109.16;;;-0.74;62.35
46782;BME280;32541;46.298;11.506;2023-02-03T05:51:48;90110.19;;;-0.88;62.80
46782;BME280;32541;46.298;11.506;2023-02-03T05:54:13;90110.66;;;-0.84;62.52
46782;BME280;32541;46.298;11.506;2023-02-03T05:56:39;90113.59;;;-0.82;62.07
46782;BME280;32541;46.298;11.506;2023-02-03T05:59:04;90132.72;;;-0.69;62.15
46782;BME280;32541;46.298;11.506;2023-02-03T06:01:31;90132.47;;;-0.66;60.35
46782;BME280;32541;46.298;11.506;2023-02-03T06:03:56;90154.63;;;-0.89;62.01
46782;BME280;32541;46.298;11.506;2023-02-03T06:06:22;90157.53;;;-0.82;62.30
46782;BME280;32541;46.298;11.506;2023-02-03T06:08:47;90151.66;;;-0.97;62.09
46782;BME280;32541;46.298;11.506;2023-02-03T06:11:12;90153.41;;;-0.99;61.55
46782;BME280;32541;46.298;11.506;2023-02-03T06:13:38;90158.06;;;-1.05;62.37
46782;BME280;32541;46.298;11.506;2023-02-03T06:16:04;90165.66;;;-0.98;62.57
46782;BME280;32541;46.298;11.506;2023-02-03T06:18:29;90172.78;;;-0.90;62.78
46782;BME280;32541;46.298;11.506;2023-02-03T06:20:55;90167.13;;;-0.97;62.06
46782;BME280;32541;46.298;11.506;2023-02-03T06:23:20;90178.66;;;-0.97;62.61
46782;BME280;32541;46.298;11.506;2023-02-03T06:25:49;90180.88;;;-1.06;63.31
46782;BME280;32541;46.298;11.506;2023-02-03T06:28:16;90181.34;;;-0.91;62.83
46782;BME280;32541;46.298;11.506;2023-02-03T06:30:42;90177.91;;;-0.92;63.00
46782;BME280;32541;46.298;11.506;2023-02-03T06:33:07;90173.00;;;-0.93;63.97
46782;BME280;32541;46.298;11.506;2023-02-03T06:35:33;90168.59;;;-0.96;63.72
46782;BME280;32541;46.298;11.506;2023-02-03T06:37:58;90173.75;;;-0.93;62.99
46782;BME280;32541;46.298;11.506;2023-02-03T06:40:24;90171.28;;;-0.91;62.84
46782;BME280;32541;46.298;11.506;2023-02-03T06:42:49;90174.72;;;-0.85;61.46
46782;BME280;32541;46.298;11.506;2023-02-03T06:45:16;90176.94;;;-0.83;61.05
46782;BME280;32541;46.298;11.506;2023-02-03T06:47:42;90182.06;;;-0.74;62.19
46782;BME280;32541;46.298;11.506;2023-02-03T06:50:10;90183.78;;;-0.82;62.52
46782;BME280;32541;46.298;11.506;2023-02-03T06:52:36;90194.84;;;-0.80;61.06
46782;BME280;32541;46.298;11.506;2023-02-03T06:55:03;90198.53;;;-0.83;62.00
46782;BME280;32541;46.298;11.506;2023-02-03T06:57:28;90191.88;;;-0.82;62.18
46782;BME280;32541;46.298;11.506;2023-02-03T06:59:54;90196.06;;;-0.81;61.83
46782;BME280;32541;46.298;11.506;2023-02-03T07:02:19;90186.94;;;-0.56;59.57
46782;BME280;32541;46.298;11.506;2023-02-03T07:04:44;90207.59;;;-0.70;62.27
46782;BME280;32541;46.298;11.506;2023-02-03T07:07:11;90203.94;;;-0.83;62.14
46782;BME280;32541;46.298;11.506;2023-02-03T07:09:37;90205.88;;;-0.84;61.75
46782;BME280;32541;46.298;11.506;2023-02-03T07:12:04;90212.75;;;-0.72;63.05
46782;BME280;32541;46.298;11.506;2023-02-03T07:14:29;90209.31;;;-0.72;62.90
46782;BME280;32541;46.298;11.506;2023-02-03T07:16:55;90201.22;;;-0.78;62.44
46782;BME280;32541;46.298;11.506;2023-02-03T07:19:21;90194.56;;;-0.71;62.25
46782;BME280;32541;46.298;11.506;2023-02-03T07:21:46;90191.13;;;-0.77;63.08
46782;BME280;32541;46.298;11.506;2023-02-03T07:24:12;90193.84;;;-0.72;61.61
46782;BME280;32541;46.298;11.506;2023-02-03T07:26:37;90190.63;;;-0.65;61.34
46782;BME280;32541;46.298;11.506;2023-02-03T07:29:03;90183.28;;;-0.75;62.23
46782;BME280;32541;46.298;11.506;2023-02-03T07:31:28;90180.09;;;-0.74;62.15
46782;BME280;32541;46.298;11.506;2023-02-03T07:33:54;90181.34;;;-0.75;62.88
46782;BME280;32541;46.298;11.506;2023-02-03T07:36:19;90174.94;;;-0.66;64.25
46782;BME280;32541;46.298;11.506;2023-02-03T07:38:44;90163.41;;;-0.67;62.99
46782;BME280;32541;46.298;11.506;2023-02-03T07:41:10;90164.38;;;0.05;59.57
46782;BME280;32541;46.298;11.506;2023-02-03T07:43:35;90162.44;;;2.02;54.30
46782;BME280;32541;46.298;11.506;2023-02-03T07:46:00;90152.44;;;4.14;50.25
46782;BME280;32541;46.298;11.506;2023-02-03T07:48:26;90158.09;;;6.29;46.63
46782;BME280;32541;46.298;11.506;2023-02-03T07:50:51;90140.03;;;8.33;43.06
46782;BME280;32541;46.298;11.506;2023-02-03T07:53:17;90137.41;;;9.70;38.61
46782;BME280;32541;46.298;11.506;2023-02-03T07:55:42;90132.94;;;11.54;35.70
46782;BME280;32541;46.298;11.506;2023-02-03T07:58:08;90124.63;;;12.82;33.42
46782;BME280;32541;46.298;11.506;2023-02-03T08:00:34;90124.16;;;14.12;32.54
46782;BME280;32541;46.298;11.506;2023-02-03T08:02:59;90124.19;;;14.64;30.96
46782;BME280;32541;46.298;11.506;2023-02-03T08:05:25;90128.88;;;14.62;30.64
46782;BME280;32541;46.298;11.506;2023-02-03T08:07:50;90131.19;;;13.94;29.79
46782;BME280;32541;46.298;11.506;2023-02-03T08:10:16;90133.19;;;14.03;30.46
46782;BME280;32541;46.298;11.506;2023-02-03T08:12:42;90137.72;;;14.91;30.01
46782;BME280;32541;46.298;11.506;2023-02-03T08:15:09;90130.66;;;15.86;28.73
46782;BME280;32541;46.298;11.506;2023-02-03T08:17:35;90134.00;;;16.52;28.30
46782;BME280;32541;46.298;11.506;2023-02-03T08:20:01;90139.16;;;15.34;28.68
46782;BME280;32541;46.298;11.506;2023-02-03T08:22:26;90148.16;;;15.02;29.41
46782;BME280;32541;46.298;11.506;2023-02-03T08:24:52;90149.88;;;12.50;30.67
46782;BME280;32541;46.298;11.506;2023-02-03T08:27:21;90159.44;;;12.03;31.95
46782;BME280;32541;46.298;11.506;2023-02-03T08:29:47;90165.53;;;10.28;34.68
46782;BME280;32541;46.298;11.506;2023-02-03T08:32:15;90163.94;;;9.35;36.01
46782;BME280;32541;46.298;11.506;2023-02-03T08:34:41;90154.78;;;10.22;35.83
46782;BME280;32541;46.298;11.506;2023-02-03T08:37:07;90160.34;;;10.74;35.97
46782;BME280;32541;46.298;11.506;2023-02-03T08:39:33;90151.22;;;11.59;33.73
46782;BME280;32541;46.298;11.506;2023-02-03T08:41:59;90147.72;;;11.58;34.82
46782;BME280;32541;46.298;11.506;2023-02-03T08:44:24;90155.97;;;12.02;33.63
46782;BME280;32541;46.298;11.506;2023-02-03T08:46:53;90142.47;;;12.06;32.50
46782;BME280;32541;46.298;11.506;2023-02-03T08:49:19;90163.38;;;11.56;33.52
46782;BME280;32541;46.298;11.506;2023-02-03T08:51:46;90150.00;;;11.69;33.99
46782;BME280;32541;46.298;11.506;2023-02-03T08:54:12;90158.63;;;11.83;34.09
46782;BME280;32541;46.298;11.506;2023-02-03T08:56:38;90155.28;;;12.11;34.35
46782;BME280;32541;46.298;11.506;2023-02-03T08:59:04;90162.53;;;12.16;32.88
46782;BME280;32541;46.298;11.506;2023-02-03T09:01:30;90150.94;;;9.93;35.85
46782;BME280;32541;46.298;11.506;2023-02-03T09:03:55;90154.19;;;9.74;36.97
46782;BME280;32541;46.298;11.506;2023-02-03T09:06:21;90150.84;;;9.59;36.50
46782;BME280;32541;46.298;11.506;2023-02-03T09:08:47;90150.06;;;9.90;38.00
46782;BME280;32541;46.298;11.506;2023-02-03T09:11:15;90154.09;;;10.39;37.57
46782;BME280;32541;46.298;11.506;2023-02-03T09:13:41;90147.94;;;10.99;36.58
46782;BME280;32541;46.298;11.506;2023-02-03T09:16:11;90152.34;;;11.29;36.07
46782;BME280;32541;46.298;11.506;2023-02-03T09:18:37;90154.03;;;9.97;35.66
46782;BME280;32541;46.298;11.506;2023-02-03T09:21:05;90164.13;;;7.44;39.64
46782;BME280;32541;46.298;11.506;2023-02-03T09:23:31;90150.19;;;6.53;42.69
46782;BME280;32541;46.298;11.506;2023-02-03T09:26:07;90180.16;;;5.61;45.20
46782;BME280;32541;46.298;11.506;2023-02-03T09:28:34;90164.06;;;6.55;42.73
46782;BME280;32541;46.298;11.506;2023-02-03T09:31:21;90163.22;;;5.34;45.07
46782;BME280;32541;46.298;11.506;2023-02-03T09:33:46;90159.25;;;6.84;44.64
46782;BME280;32541;46.298;11.506;2023-02-03T09:36:12;90153.22;;;7.97;40.80
46782;BME280;32541;46.298;11.506;2023-02-03T09:38:38;90149.00;;;8.89;41.04
46782;BME280;32541;46.298;11.506;2023-02-03T09:43:36;90136.28;;;10.40;37.80
46782;BME280;32541;46.298;11.506;2023-02-03T09:46:10;90127.72;;;11.04;36.52
46782;BME280;32541;46.298;11.506;2023-02-03T09:48:43;90131.19;;;11.32;35.47
46782;BME280;32541;46.298;11.506;2023-02-03T09:51:18;90118.47;;;11.09;34.52
46782;BME280;32541;46.298;11.506;2023-02-03T09:53:54;90131.19;;;10.88;34.02
46782;BME280;32541;46.298;11.506;2023-02-03T09:56:28;90114.53;;;8.71;37.69
46782;BME280;32541;46.298;11.506;2023-02-03T09:58:55;90120.88;;;8.11;38.56
46782;BME280;32541;46.298;11.506;2023-02-03T10:01:24;90118.19;;;7.65;39.26
46782;BME280;32541;46.298;11.506;2023-02-03T10:06:40;90109.72;;;7.03;41.38
46782;BME280;32541;46.298;11.506;2023-02-03T10:09:21;90092.63;;;7.17;41.03
46782;BME280;32541;46.298;11.506;2023-02-03T10:15:04;90102.31;;;9.04;38.12
46782;BME280;32541;46.298;11.506;2023-02-03T10:17:52;90079.31;;;7.67;39.42
46782;BME280;32541;46.298;11.506;2023-02-03T10:20:26;90081.25;;;8.74;38.23
46782;BME280;32541;46.298;11.506;2023-02-03T10:22:58;90084.00;;;8.12;39.25
46782;BME280;32541;46.298;11.506;2023-02-03T10:25:48;90072.28;;;9.06;37.91
46782;BME280;32541;46.298;11.506;2023-02-03T10:28:21;90064.19;;;7.43;40.21
46782;BME280;32541;46.298;11.506;2023-02-03T10:30:52;90068.66;;;8.09;40.32
46782;BME280;32541;46.298;11.506;2023-02-03T10:33:18;90044.66;;;8.79;38.99
46782;BME280;32541;46.298;11.506;2023-02-03T10:35:53;90049.75;;;8.83;39.32
46782;BME280;32541;46.298;11.506;2023-02-03T10:41:09;90038.94;;;10.26;36.61
46782;BME280;32541;46.298;11.506;2023-02-03T10:43:34;90025.47;;;9.95;36.39
46782;BME280;32541;46.298;11.506;2023-02-03T10:46:14;90031.28;;;10.24;37.18
46782;BME280;32541;46.298;11.506;2023-02-03T10:48:40;90023.50;;;10.91;34.60
46782;BME280;32541;46.298;11.506;2023-02-03T10:53:48;90020.38;;;9.92;35.30
46782;BME280;32541;46.298;11.506;2023-02-03T10:56:21;90022.31;;;9.40;34.43
46782;BME280;32541;46.298;11.506;2023-02-03T10:58:51;90023.66;;;10.32;35.17
46782;BME280;32541;46.298;11.506;2023-02-03T11:01:19;90001.38;;;10.99;32.72
46782;BME280;32541;46.298;11.506;2023-02-03T11:04:00;90013.66;;;8.22;37.29
46782;BME280;32541;46.298;11.506;2023-02-03T11:06:27;89999.97;;;8.22;37.61
46782;BME280;32541;46.298;11.506;2023-02-03T11:08:53;89994.19;;;8.50;36.79
46782;BME280;32541;46.298;11.506;2023-02-03T11:11:27;89996.53;;;9.60;36.76
46782;BME280;32541;46.298;11.506;2023-02-03T11:14:10;89975.88;;;10.28;34.71
46782;BME280;32541;46.298;11.506;2023-02-03T11:16:38;89965.38;;;10.78;30.44
46782;BME280;32541;46.298;11.506;2023-02-03T11:19:11;89959.47;;;10.64;34.42
46782;BME280;32541;46.298;11.506;2023-02-03T11:21:45;89956.88;;;10.93;31.24
46782;BME280;32541;46.298;11.506;2023-02-03T11:24:32;89953.38;;;10.56;33.13
46782;BME280;32541;46.298;11.506;2023-02-03T11:27:04;89945.66;;;10.28;33.05
46782;BME280;32541;46.298;11.506;2023-02-03T11:29:35;89949.75;;;10.53;34.26
46782;BME280;32541;46.298;11.506;2023-02-03T11:32:28;89940.69;;;10.97;29.23
46782;BME280;32541;46.298;11.506;2023-02-03T11:35:01;89930.69;;;11.38;27.41
46782;BME280;32541;46.298;11.506;2023-02-03T11:43:04;89928.72;;;11.57;33.64
46782;BME280;32541;46.298;11.506;2023-02-03T12:23:45;89847.09;;;14.70;22.60
46782;BME280;32541;46.298;11.506;2023-02-03T12:26:19;89852.28;;;15.33;22.99
46782;BME280;32541;46.298;11.506;2023-02-03T12:31:49;89836.38;;;15.69;21.81
46782;BME280;32541;46.298;11.506;2023-02-03T12:34:32;89830.75;;;15.20;22.19
46782;BME280;32541;46.298;11.506;2023-02-03T12:37:15;89830.13;;;15.45;22.58
46782;BME280;32541;46.298;11.506;2023-02-03T12:39:51;89826.34;;;15.75;22.75
46782;BME280;32541;46.298;11.506;2023-02-03T12:42:30;89812.56;;;15.89;19.44
46782;BME280;32541;46.298;11.506;2023-02-03T12:45:04;89819.88;;;15.36;20.62
46782;BME280;32541;46.298;11.506;2023-02-03T12:48:16;89805.22;;;14.98;19.50
46782;BME280;32541;46.298;11.506;2023-02-03T12:50:55;89810.00;;;13.86;20.75
46782;BME280;32541;46.298;11.506;2023-02-03T12:53:28;89798.25;;;13.97;19.87
46782;BME280;32541;46.298;11.506;2023-02-03T12:56:06;89818.06;;;14.26;20.49
46782;BME280;32541;46.298;11.506;2023-02-03T13:01:25;89810.19;;;13.57;22.12
46782;BME280;32541;46.298;11.506;2023-02-03T13:06:46;89807.47;;;14.23;20.67
46782;BME280;32541;46.298;11.506;2023-02-03T13:11:50;89810.63;;;15.31;22.05
46782;BME280;32541;46.298;11.506;2023-02-03T13:14:25;89800.78;;;15.77;20.56
46782;BME280;32541;46.298;11.506;2023-02-03T13:16:56;89793.38;;;16.30;19.44
46782;BME280;32541;46.298;11.506;2023-02-03T13:19:29;89796.41;;;15.25;19.43
46782;BME280;32541;46.298;11.506;2023-02-03T13:22:00;89785.47;;;14.69;20.53
46782;BME280;32541;46.298;11.506;2023-02-03T13:24:27;89796.78;;;15.20;22.26
46782;BME280;32541;46.298;11.506;2023-02-03T13:27:25;89793.88;;;15.29;21.93
46782;BME280;32541;46.298;11.506;2023-02-03T13:30:14;89797.47;;;15.67;21.66
46782;BME280;32541;46.298;11.506;2023-02-03T13:33:46;89792.81;;;15.94;20.34
46782;BME280;32541;46.298;11.506;2023-02-03T13:43:45;89788.91;;;15.99;20.07
46782;BME280;32541;46.298;11.506;2023-02-03T13:46:22;89792.09;;;16.19;22.08
46782;BME280;32541;46.298;11.506;2023-02-03T13:48:50;89766.28;;;16.42;20.25
46782;BME280;32541;46.298;11.506;2023-02-03T13:51:21;89775.97;;;16.04;19.76
46782;BME280;32541;46.298;11.506;2023-02-03T13:53:51;89785.41;;;15.39;20.12
46782;BME280;32541;46.298;11.506;2023-02-03T13:56:23;89789.19;;;14.74;19.81
46782;BME280;32541;46.298;11.506;2023-02-03T14:01:38;89795.75;;;14.34;20.76
46782;BME280;32541;46.298;11.506;2023-02-03T14:04:51;89797.31;;;13.50;21.23
46782;BME280;32541;46.298;11.506;2023-02-03T14:18:17;89796.19;;;13.44;20.74
46782;BME280;32541;46.298;11.506;2023-02-03T14:20:53;89780.94;;;13.43;19.58
46782;BME280;32541;46.298;11.506;2023-02-03T14:23:38;89768.97;;;13.50;20.53
46782;BME280;32541;46.298;11.506;2023-02-03T14:26:14;89789.19;;;13.21;22.53
46782;BME280;32541;46.298;11.506;2023-02-03T14:28:42;89783.06;;;13.86;20.63
46782;BME280;32541;46.298;11.506;2023-02-03T14:31:20;89773.28;;;14.07;19.79
46782;BME280;32541;46.298;11.506;2023-02-03T14:38:53;89766.47;;;14.19;22.43
46782;BME280;32541;46.298;11.506;2023-02-03T14:41:28;89781.94;;;14.45;21.24
46782;BME280;32541;46.298;11.506;2023-02-03T14:44:06;89787.34;;;14.43;21.13
46782;BME280;32541;46.298;11.506;2023-02-03T14:46:52;89801.38;;;13.49;20.16
46782;BME280;32541;46.298;11.506;2023-02-03T14:49:32;89794.72;;;13.21;20.28
46782;BME280;32541;46.298;11.506;2023-02-03T14:52:24;89788.97;;;13.60;20.98
46782;BME280;32541;46.298;11.506;2023-02-03T15:05:39;89779.69;;;14.77;22.54
46782;BME280;32541;46.298;11.506;2023-02-03T15:10:57;89758.25;;;14.77;21.24
46782;BME280;32541;46.298;11.506;2023-02-03T15:13:28;89759.47;;;14.74;24.50
46782;BME280;32541;46.298;11.506;2023-02-03T15:15:56;89763.53;;;14.62;23.81
46782;BME280;32541;46.298;11.506;2023-02-03T15:18:34;89761.22;;;14.46;25.21
46782;BME280;32541;46.298;11.506;2023-02-03T15:21:01;89756.28;;;14.33;21.33
46782;BME280;32541;46.298;11.506;2023-02-03T15:23:38;89740.66;;;13.93;20.73